createdAt,value
2023-07-18T00:00:54.875Z,63.04
2023-07-18T00:01:54.807Z,63.04
2023-07-18T00:02:54.836Z,63.04
2023-07-18T00:03:54.900Z,63.14
2023-07-18T00:04:54.747Z,63.14
2023-07-18T00:05:54.717Z,63.04
2023-07-18T00:06:54.746Z,63.24
2023-07-18T00:07:54.708Z,63.14
2023-07-18T00:08:54.704Z,63.24
2023-07-18T00:09:56.223Z,63.24
2023-07-18T00:10:54.712Z,63.34
2023-07-18T00:11:54.647Z,63.34
2023-07-18T00:12:54.750Z,63.45
2023-07-18T00:13:54.659Z,63.34
2023-07-18T00:14:54.658Z,63.54
2023-07-18T00:15:54.721Z,63.78
2023-07-18T00:16:54.664Z,63.78
2023-07-18T00:17:54.651Z,63.78
2023-07-18T00:18:54.610Z,63.87
2023-07-18T00:19:54.599Z,63.78
2023-07-18T00:20:54.575Z,63.78
2023-07-18T00:21:54.560Z,63.87
2023-07-18T00:22:54.697Z,63.98
2023-07-18T00:23:54.540Z,63.87
2023-07-18T00:24:54.584Z,63.98
2023-07-18T00:25:54.525Z,64.07
2023-07-18T00:26:54.507Z,64.18
2023-07-18T00:27:54.504Z,64.07
2023-07-18T00:28:54.688Z,64.07
2023-07-18T00:29:54.694Z,64.18
2023-07-18T00:30:54.468Z,64.07
2023-07-18T00:31:54.477Z,64.07
2023-07-18T00:32:54.459Z,63.98
2023-07-18T00:33:54.451Z,64.18
2023-07-18T00:34:54.431Z,64.07
2023-07-18T00:35:54.398Z,64.07
2023-07-18T00:36:54.396Z,64.18
2023-07-18T00:37:54.408Z,64.28
2023-07-18T00:38:54.385Z,64.51
2023-07-18T00:39:54.361Z,64.41
2023-07-18T00:40:54.356Z,64.51
2023-07-18T00:41:54.357Z,64.41
2023-07-18T00:42:54.461Z,64.51
2023-07-18T00:43:54.360Z,64.51
2023-07-18T00:44:54.556Z,64.41
2023-07-18T00:45:54.342Z,64.41
2023-07-18T00:46:54.346Z,64.51
2023-07-18T00:47:54.342Z,64.61
2023-07-18T00:48:54.283Z,64.61
2023-07-18T00:49:54.334Z,64.61
2023-07-18T00:50:54.282Z,64.61
2023-07-18T00:51:54.243Z,64.51
2023-07-18T00:52:54.226Z,64.72
2023-07-18T00:53:54.239Z,64.72
2023-07-18T00:54:54.218Z,64.51
2023-07-18T00:55:54.242Z,64.61
2023-07-18T00:56:54.210Z,64.72
2023-07-18T00:57:54.172Z,64.72
2023-07-18T00:58:54.439Z,64.61
2023-07-18T00:59:54.149Z,64.51
2023-07-18T01:00:54.171Z,64.61
2023-07-18T01:01:54.195Z,64.61
2023-07-18T01:02:54.235Z,64.51
2023-07-18T01:03:54.134Z,64.61
2023-07-18T01:04:54.103Z,64.51
2023-07-18T01:05:54.100Z,64.61
2023-07-18T01:06:54.144Z,64.51
2023-07-18T01:07:54.100Z,64.51
2023-07-18T01:08:54.103Z,64.51
2023-07-18T01:09:55.363Z,64.61
2023-07-18T01:10:54.052Z,64.61
2023-07-18T01:11:54.112Z,64.81
2023-07-18T01:12:54.037Z,64.81
2023-07-18T01:13:54.072Z,64.64
2023-07-18T01:14:54.021Z,64.64
2023-07-18T01:15:54.088Z,64.84
2023-07-18T01:16:54.009Z,64.64
2023-07-18T01:17:54.121Z,64.54
2023-07-18T01:18:54.003Z,64.54
2023-07-18T01:19:53.944Z,64.75
2023-07-18T01:20:53.951Z,64.54
2023-07-18T01:21:53.939Z,64.51
2023-07-18T01:22:53.950Z,64.54
2023-07-18T01:23:53.914Z,64.54
2023-07-18T01:24:53.938Z,64.54
2023-07-18T01:25:53.928Z,64.54
2023-07-18T01:26:53.903Z,64.44
2023-07-18T01:27:53.893Z,64.54
2023-07-18T01:28:53.856Z,64.44
2023-07-18T01:29:53.844Z,64.44
2023-07-18T01:30:53.847Z,64.34
2023-07-18T01:31:53.840Z,64.54
2023-07-18T01:32:53.880Z,64.54
2023-07-18T01:33:53.832Z,64.44
2023-07-18T01:34:54.347Z,64.54
2023-07-18T01:35:53.842Z,64.64
2023-07-18T01:36:53.792Z,64.75
2023-07-18T01:37:53.827Z,64.84
2023-07-18T01:38:53.787Z,64.64
2023-07-18T01:39:53.737Z,64.75
2023-07-18T01:40:53.729Z,64.54
2023-07-18T01:41:54.456Z,64.64
2023-07-18T01:42:53.777Z,64.64
2023-07-18T01:43:53.711Z,64.64
2023-07-18T01:44:53.709Z,64.64
2023-07-18T01:45:53.677Z,64.44
2023-07-18T01:46:53.713Z,64.64
2023-07-18T01:47:53.787Z,64.64
2023-07-18T01:48:53.669Z,64.44
2023-07-18T01:49:53.684Z,64.64
2023-07-18T01:50:53.628Z,64.34
2023-07-18T01:51:53.628Z,64.24
2023-07-18T01:52:53.610Z,64.34
2023-07-18T01:53:53.631Z,64.34
2023-07-18T01:54:53.609Z,64.24
2023-07-18T01:55:53.603Z,64.44
2023-07-18T01:56:53.578Z,64.44
2023-07-18T01:57:53.581Z,64.34
2023-07-18T01:58:55.345Z,64.54
2023-07-18T01:59:53.554Z,65.05
2023-07-18T02:00:53.559Z,64.95
2023-07-18T02:01:53.615Z,65.05
2023-07-18T02:02:54.099Z,64.75
2023-07-18T02:03:53.507Z,64.64
2023-07-18T02:04:53.517Z,64.64
2023-07-18T02:05:53.504Z,64.64
2023-07-18T02:06:53.478Z,64.54
2023-07-18T02:07:53.506Z,64.58
2023-07-18T02:08:53.451Z,64.64
2023-07-18T02:09:53.462Z,64.75
2023-07-18T02:10:53.414Z,64.64
2023-07-18T02:11:53.412Z,64.54
2023-07-18T02:12:53.435Z,64.44
2023-07-18T02:13:53.442Z,64.37
2023-07-18T02:14:53.395Z,64.24
2023-07-18T02:15:53.363Z,64.14
2023-07-18T02:16:53.441Z,64.14
2023-07-18T02:17:53.385Z,64.04
2023-07-18T02:18:53.379Z,63.93
2023-07-18T02:19:53.564Z,64.14
2023-07-18T02:20:53.372Z,64.14
2023-07-18T02:21:53.324Z,64.04
2023-07-18T02:22:53.396Z,64.14
2023-07-18T02:23:53.308Z,64.04
2023-07-18T02:24:53.299Z,64.14
2023-07-18T02:25:53.271Z,64.24
2023-07-18T02:26:54.014Z,64.24
2023-07-18T02:27:53.271Z,64.34
2023-07-18T02:28:53.267Z,64.34
2023-07-18T02:29:53.230Z,64.67
2023-07-18T02:30:53.308Z,64.58
2023-07-18T02:31:53.229Z,64.58
2023-07-18T02:32:53.239Z,64.58
2023-07-18T02:33:53.209Z,64.17
2023-07-18T02:34:53.181Z,64.04
2023-07-18T02:35:53.290Z,63.93
2023-07-18T02:36:53.158Z,63.53
2023-07-18T02:37:53.201Z,63.53
2023-07-18T02:38:53.142Z,63.64
2023-07-18T02:39:53.157Z,63.23
2023-07-18T02:40:53.125Z,63.23
2023-07-18T02:41:53.103Z,63.13
2023-07-18T02:42:53.112Z,63.13
2023-07-18T02:43:53.122Z,63.23
2023-07-18T02:44:53.113Z,63.13
2023-07-18T02:45:53.096Z,63.23
2023-07-18T02:46:53.194Z,63.73
2023-07-18T02:47:53.104Z,63.73
2023-07-18T02:48:53.066Z,63.93
2023-07-18T02:49:53.039Z,64.04
2023-07-18T02:50:53.031Z,64.04
2023-07-18T02:51:53.022Z,63.76
2023-07-18T02:52:53.024Z,64.07
2023-07-18T02:53:53.006Z,64.07
2023-07-18T02:54:53.002Z,64.07
2023-07-18T02:55:52.998Z,63.93
2023-07-18T02:56:53.030Z,63.96
2023-07-18T02:57:52.970Z,64.07
2023-07-18T02:58:52.934Z,64.17
2023-07-18T02:59:52.970Z,64.27
2023-07-18T03:00:52.981Z,64.37
2023-07-18T03:01:52.947Z,64.47
2023-07-18T03:02:52.983Z,64.58
2023-07-18T03:03:52.938Z,64.58
2023-07-18T03:04:52.888Z,64.58
2023-07-18T03:05:52.887Z,64.67
2023-07-18T03:06:52.854Z,64.78
2023-07-18T03:07:52.833Z,64.67
2023-07-18T03:08:53.079Z,64.78
2023-07-18T03:09:52.841Z,64.87
2023-07-18T03:10:52.830Z,64.67
2023-07-18T03:11:54.413Z,64.78
2023-07-18T03:12:52.783Z,64.90
2023-07-18T03:13:52.773Z,64.98
2023-07-18T03:14:52.782Z,65.01
2023-07-18T03:15:52.780Z,64.98
2023-07-18T03:16:52.870Z,64.98
2023-07-18T03:17:52.776Z,65.08
2023-07-18T03:18:52.716Z,64.98
2023-07-18T03:19:52.704Z,64.98
2023-07-18T03:20:52.893Z,65.21
2023-07-18T03:21:52.700Z,65.21
2023-07-18T03:22:52.780Z,65.21
2023-07-18T03:23:52.702Z,65.31
2023-07-18T03:24:52.667Z,65.41
2023-07-18T03:25:52.670Z,65.51
2023-07-18T03:26:52.639Z,65.61
2023-07-18T03:27:52.659Z,65.61
2023-07-18T03:28:52.656Z,65.71
2023-07-18T03:29:52.653Z,65.61
2023-07-18T03:30:52.616Z,65.61
2023-07-18T03:31:52.648Z,65.61
2023-07-18T03:32:52.706Z,65.61
2023-07-18T03:33:52.601Z,65.61
2023-07-18T03:34:52.585Z,65.71
2023-07-18T03:35:52.575Z,65.71
2023-07-18T03:36:52.527Z,65.61
2023-07-18T03:37:52.527Z,66.12
2023-07-18T03:38:52.506Z,66.12
2023-07-18T03:39:52.769Z,66.35
2023-07-18T03:40:52.493Z,66.25
2023-07-18T03:41:52.503Z,66.05
2023-07-18T03:42:52.497Z,66.12
2023-07-18T03:43:52.475Z,66.15
2023-07-18T03:44:52.483Z,66.25
2023-07-18T03:45:53.031Z,66.22
2023-07-18T03:47:02.218Z,66.25
2023-07-18T03:47:52.483Z,66.05
2023-07-18T03:48:52.477Z,66.25
2023-07-18T03:49:52.403Z,66.25
2023-07-18T03:50:52.414Z,66.55
2023-07-18T03:51:52.389Z,66.65
2023-07-18T03:52:52.376Z,66.96
2023-07-18T03:53:52.360Z,67.46
2023-07-18T03:54:52.385Z,67.66
2023-07-18T03:55:52.370Z,68.07
2023-07-18T03:56:52.454Z,68.17
2023-07-18T03:57:52.338Z,68.27
2023-07-18T03:58:52.340Z,68.17
2023-07-18T03:59:52.316Z,68.40
2023-07-18T04:00:52.298Z,68.40
2023-07-18T04:01:52.344Z,68.60
2023-07-18T04:02:52.344Z,68.80
2023-07-18T04:03:52.312Z,68.91
2023-07-18T04:04:52.266Z,69.21
2023-07-18T04:05:52.248Z,69.45
2023-07-18T04:06:52.231Z,69.85
2023-07-18T04:07:52.222Z,69.95
2023-07-18T04:08:52.239Z,70.25
2023-07-18T04:09:52.574Z,70.25
2023-07-18T04:10:52.208Z,70.36
2023-07-18T04:11:52.180Z,70.59
2023-07-18T04:12:52.200Z,71.00
2023-07-18T04:13:52.383Z,71.00
2023-07-18T04:14:52.213Z,71.00
2023-07-18T04:15:52.211Z,71.20
2023-07-18T04:16:52.131Z,71.20
2023-07-18T04:17:52.202Z,71.40
2023-07-18T04:18:52.105Z,71.60
2023-07-18T04:19:52.108Z,71.40
2023-07-18T04:20:53.029Z,71.50
2023-07-18T04:21:52.124Z,71.60
2023-07-18T04:22:52.127Z,71.50
2023-07-18T04:23:52.088Z,71.70
2023-07-18T04:24:52.065Z,71.60
2023-07-18T04:25:52.064Z,71.80
2023-07-18T04:26:52.079Z,71.91
2023-07-18T04:27:52.029Z,71.91
2023-07-18T04:28:52.004Z,71.80
2023-07-18T04:29:52.050Z,71.50
2023-07-18T04:30:52.128Z,71.30
2023-07-18T04:31:52.054Z,71.20
2023-07-18T04:32:51.990Z,71.06
2023-07-18T04:33:51.981Z,71.06
2023-07-18T04:34:51.993Z,70.86
2023-07-18T04:35:52.042Z,70.66
2023-07-18T04:36:51.957Z,70.56
2023-07-18T04:37:51.984Z,70.42
2023-07-18T04:38:51.915Z,70.42
2023-07-18T04:39:51.896Z,70.12
2023-07-18T04:40:53.333Z,69.92
2023-07-18T04:41:55.539Z,69.82
2023-07-18T04:42:51.855Z,69.92
2023-07-18T04:43:51.861Z,69.62
2023-07-18T04:44:52.413Z,69.42
2023-07-18T04:45:51.952Z,69.28
2023-07-18T04:46:51.912Z,69.08
2023-07-18T04:47:51.854Z,68.98
2023-07-18T04:48:51.808Z,68.87
2023-07-18T04:49:51.807Z,68.77
2023-07-18T04:50:51.821Z,68.77
2023-07-18T04:51:52.073Z,68.77
2023-07-18T04:52:51.846Z,68.54
2023-07-18T04:53:51.779Z,68.24
2023-07-18T04:54:51.764Z,68.33
2023-07-18T04:55:51.749Z,68.37
2023-07-18T04:56:51.724Z,68.13
2023-07-18T04:57:51.726Z,67.93
2023-07-18T04:58:51.697Z,67.83
2023-07-18T04:59:51.737Z,67.63
2023-07-18T05:00:51.691Z,67.53
2023-07-18T05:01:51.773Z,67.33
2023-07-18T05:02:51.727Z,66.99
2023-07-18T05:03:57.865Z,67.10
2023-07-18T05:04:51.657Z,66.79
2023-07-18T05:05:51.641Z,66.59
2023-07-18T05:06:51.628Z,66.69
2023-07-18T05:07:51.639Z,66.49
2023-07-18T05:08:51.630Z,66.39
2023-07-18T05:09:51.820Z,66.29
2023-07-18T05:10:51.629Z,66.19
2023-07-18T05:11:51.570Z,65.75
2023-07-18T05:12:52.477Z,65.01
2023-07-18T05:13:51.545Z,64.61
2023-07-18T05:14:51.537Z,64.51
2023-07-18T05:15:51.785Z,64.31
2023-07-18T05:16:51.526Z,64.72
2023-07-18T05:17:51.605Z,64.72
2023-07-18T05:18:51.501Z,64.28
2023-07-18T05:19:51.522Z,63.98
2023-07-18T05:20:51.477Z,63.54
2023-07-18T05:21:51.542Z,63.45
2023-07-18T05:22:51.497Z,63.45
2023-07-18T05:23:51.944Z,63.57
2023-07-18T05:24:51.449Z,63.54
2023-07-18T05:25:51.474Z,63.45
2023-07-18T05:26:51.592Z,63.65
2023-07-18T05:27:51.456Z,63.67
2023-07-18T05:28:51.397Z,63.67
2023-07-18T05:29:51.399Z,63.57
2023-07-18T05:30:51.368Z,63.45
2023-07-18T05:31:51.426Z,63.14
2023-07-18T05:32:51.538Z,63.24
2023-07-18T05:33:51.350Z,63.04
2023-07-18T05:34:51.349Z,62.91
2023-07-18T05:35:51.386Z,62.30
2023-07-18T05:36:51.358Z,62.10
2023-07-18T05:37:51.336Z,62.18
2023-07-18T05:38:51.497Z,61.17
2023-07-18T05:39:51.285Z,60.87
2023-07-18T05:40:51.338Z,61.04
2023-07-18T05:41:51.257Z,60.44
2023-07-18T05:42:51.233Z,60.13
2023-07-18T05:43:51.235Z,61.65
2023-07-18T05:44:51.214Z,60.00
2023-07-18T05:45:51.275Z,59.80
2023-07-18T05:46:51.224Z,59.41
2023-07-18T05:47:51.954Z,59.38
2023-07-18T05:48:51.198Z,59.67
2023-07-18T05:49:51.234Z,59.34
2023-07-18T05:50:51.188Z,58.44
2023-07-18T05:51:51.472Z,58.24
2023-07-18T05:52:51.143Z,57.81
2023-07-18T05:53:51.195Z,57.51
2023-07-18T05:54:52.609Z,56.81
2023-07-18T05:55:51.097Z,56.68
2023-07-18T05:56:51.148Z,56.58
2023-07-18T05:57:51.126Z,56.38
2023-07-18T05:58:52.464Z,56.08
2023-07-18T05:59:51.118Z,55.78
2023-07-18T06:00:51.104Z,55.98
2023-07-18T06:01:51.063Z,55.78
2023-07-18T06:02:51.207Z,55.68
2023-07-18T06:03:51.088Z,55.47
2023-07-18T06:04:51.013Z,55.88
2023-07-18T06:05:51.000Z,55.68
2023-07-18T06:06:51.013Z,55.88
2023-07-18T06:07:51.270Z,55.95
2023-07-18T06:08:51.251Z,55.55
2023-07-18T06:09:51.095Z,55.25
2023-07-18T06:10:51.043Z,55.52
2023-07-18T06:11:50.986Z,55.22
2023-07-18T06:12:50.953Z,54.43
2023-07-18T06:13:50.950Z,54.43
2023-07-18T06:14:51.029Z,54.32
2023-07-18T06:15:50.913Z,54.20
2023-07-18T06:16:50.986Z,53.69
2023-07-18T06:17:50.974Z,53.00
2023-07-18T06:18:50.929Z,52.19
2023-07-18T06:19:50.852Z,52.09
2023-07-18T06:20:50.855Z,51.59
2023-07-18T06:21:50.861Z,51.39
2023-07-18T06:22:51.027Z,51.39
2023-07-18T06:23:53.266Z,51.49
2023-07-18T06:24:50.912Z,51.49
2023-07-18T06:25:50.813Z,51.27
2023-07-18T06:26:51.056Z,51.37
2023-07-18T06:27:50.802Z,51.14
2023-07-18T06:28:53.280Z,51.04
2023-07-18T06:29:50.996Z,50.62
2023-07-18T06:30:50.837Z,50.52
2023-07-18T06:31:50.749Z,50.24
2023-07-18T06:32:50.752Z,49.94
2023-07-18T06:33:50.743Z,49.74
2023-07-18T06:34:50.870Z,49.41
2023-07-18T06:35:50.781Z,49.32
2023-07-18T06:36:50.720Z,49.41
2023-07-18T06:37:50.667Z,49.62
2023-07-18T06:38:50.699Z,49.22
2023-07-18T06:39:50.669Z,49.41
2023-07-18T06:40:50.667Z,49.32
2023-07-18T06:41:50.638Z,49.52
2023-07-18T06:42:50.622Z,49.32
2023-07-18T06:43:50.630Z,49.02
2023-07-18T06:44:50.623Z,49.02
2023-07-18T06:45:50.609Z,49.22
2023-07-18T06:46:50.773Z,48.90
2023-07-18T06:47:50.642Z,48.69
2023-07-18T06:48:50.611Z,48.37
2023-07-18T06:49:50.568Z,48.39
2023-07-18T06:50:50.589Z,47.99
2023-07-18T06:51:50.567Z,47.67
2023-07-18T06:52:50.670Z,47.87
2023-07-18T06:53:50.537Z,47.97
2023-07-18T06:54:50.560Z,48.17
2023-07-18T06:55:50.605Z,47.87
2023-07-18T06:56:50.509Z,47.57
2023-07-18T06:57:50.536Z,46.77
2023-07-18T06:58:50.480Z,46.67
2023-07-18T06:59:50.478Z,46.65
2023-07-18T07:00:50.462Z,46.87
2023-07-18T07:01:50.489Z,47.17
2023-07-18T07:02:50.634Z,46.87
2023-07-18T07:03:50.574Z,46.97
2023-07-18T07:04:50.421Z,46.77
2023-07-18T07:05:50.414Z,46.77
2023-07-18T07:06:50.423Z,47.27
2023-07-18T07:07:50.473Z,47.47
2023-07-18T07:08:50.659Z,47.05
2023-07-18T07:09:50.380Z,46.33
2023-07-18T07:10:50.376Z,46.43
2023-07-18T07:11:50.337Z,46.23
2023-07-18T07:12:50.341Z,45.93
2023-07-18T07:13:50.314Z,46.23
2023-07-18T07:14:50.321Z,46.13
2023-07-18T07:15:50.335Z,46.41
2023-07-18T07:16:50.407Z,46.41
2023-07-18T07:17:50.305Z,46.11
2023-07-18T07:18:50.257Z,45.68
2023-07-18T07:19:50.263Z,45.39
2023-07-18T07:20:50.258Z,45.71
2023-07-18T07:21:50.251Z,45.39
2023-07-18T07:22:50.248Z,44.99
2023-07-18T07:23:50.238Z,45.40
2023-07-18T07:24:50.209Z,45.61
2023-07-18T07:25:50.171Z,45.78
2023-07-18T07:26:50.191Z,45.39
2023-07-18T07:27:50.162Z,45.39
2023-07-18T07:28:50.169Z,44.76
2023-07-18T07:29:50.142Z,44.96
2023-07-18T07:30:50.472Z,44.46
2023-07-18T07:31:50.140Z,44.27
2023-07-18T07:32:50.138Z,43.97
2023-07-18T07:33:50.103Z,43.97
2023-07-18T07:34:50.123Z,43.87
2023-07-18T07:35:50.129Z,44.07
2023-07-18T07:36:50.077Z,44.59
2023-07-18T07:37:50.072Z,44.49
2023-07-18T07:38:50.057Z,44.59
2023-07-18T07:39:50.053Z,44.89
2023-07-18T07:40:50.032Z,44.49
2023-07-18T07:41:50.045Z,44.91
2023-07-18T07:42:50.089Z,44.69
2023-07-18T07:43:49.987Z,44.99
2023-07-18T07:44:50.002Z,44.96
2023-07-18T07:45:50.011Z,44.67
2023-07-18T07:46:50.045Z,44.65
2023-07-18T07:47:50.011Z,44.84
2023-07-18T07:48:49.989Z,44.84
2023-07-18T07:49:49.942Z,44.57
2023-07-18T07:50:50.023Z,44.37
2023-07-18T07:51:50.616Z,44.17
2023-07-18T07:52:49.954Z,44.57
2023-07-18T07:53:49.944Z,44.35
2023-07-18T07:54:49.952Z,44.45
2023-07-18T07:55:49.974Z,44.15
2023-07-18T07:56:49.942Z,44.05
2023-07-18T07:57:50.103Z,44.15
2023-07-18T07:59:01.267Z,43.93
2023-07-18T07:59:50.142Z,43.82
2023-07-18T08:00:49.930Z,43.21
2023-07-18T08:01:52.581Z,43.01
2023-07-18T08:02:49.925Z,42.61
2023-07-18T08:03:49.879Z,43.11
2023-07-18T08:04:49.935Z,43.11
2023-07-18T08:05:49.777Z,43.29
2023-07-18T08:06:49.807Z,43.08
2023-07-18T08:07:49.810Z,43.11
2023-07-18T08:08:49.786Z,43.38
2023-07-18T08:09:49.768Z,43.49
2023-07-18T08:10:49.769Z,43.19
2023-07-18T08:11:49.755Z,42.97
2023-07-18T08:12:49.731Z,42.77
2023-07-18T08:13:49.710Z,42.65
2023-07-18T08:14:49.719Z,42.65
2023-07-18T08:15:49.704Z,43.05
2023-07-18T08:16:49.764Z,42.94
2023-07-18T08:17:49.682Z,42.85
2023-07-18T08:18:49.686Z,42.45
2023-07-18T08:19:49.641Z,42.53
2023-07-18T08:20:49.637Z,42.13
2023-07-18T08:21:49.683Z,42.41
2023-07-18T08:22:49.698Z,42.31
2023-07-18T08:23:49.614Z,42.11
2023-07-18T08:24:49.622Z,42.21
2023-07-18T08:25:49.616Z,42.63
2023-07-18T08:26:49.556Z,42.63
2023-07-18T08:27:49.579Z,42.94
2023-07-18T08:28:49.578Z,42.45
2023-07-18T08:29:49.526Z,42.35
2023-07-18T08:30:49.530Z,42.45
2023-07-18T08:31:49.587Z,41.95
2023-07-18T08:32:49.581Z,42.03
2023-07-18T08:33:49.558Z,42.03
2023-07-18T08:34:49.530Z,42.13
2023-07-18T08:35:49.503Z,42.11
2023-07-18T08:36:49.599Z,41.82
2023-07-18T08:37:49.456Z,41.09
2023-07-18T08:38:50.860Z,41.00
2023-07-18T08:39:49.513Z,40.90
2023-07-18T08:40:49.438Z,40.72
2023-07-18T08:41:49.447Z,41.14
2023-07-18T08:42:49.445Z,41.24
2023-07-18T08:43:49.409Z,41.55
2023-07-18T08:44:49.410Z,41.53
2023-07-18T08:45:49.417Z,41.24
2023-07-18T08:46:49.435Z,41.53
2023-07-18T08:47:49.897Z,41.34
2023-07-18T08:48:49.437Z,41.12
2023-07-18T08:49:49.374Z,41.42
2023-07-18T08:50:49.499Z,40.70
2023-07-18T08:51:49.456Z,40.30
2023-07-18T08:52:49.454Z,40.01
2023-07-18T08:53:49.387Z,39.90
2023-07-18T08:54:51.081Z,40.01
2023-07-18T08:55:49.345Z,39.81
2023-07-18T08:56:49.252Z,39.71
2023-07-18T08:57:49.738Z,40.01
2023-07-18T08:58:49.440Z,39.41
2023-07-18T08:59:49.542Z,39.00
2023-07-18T09:00:51.049Z,38.70
2023-07-18T09:01:49.736Z,38.79
2023-07-18T09:02:49.388Z,38.40
2023-07-18T09:03:49.318Z,38.40
2023-07-18T09:04:49.234Z,38.10
2023-07-18T09:05:49.250Z,38.32
2023-07-18T09:06:50.680Z,38.40
2023-07-18T09:07:49.144Z,38.30
2023-07-18T09:08:49.203Z,38.30
2023-07-18T09:09:49.226Z,37.59
2023-07-18T09:10:49.195Z,37.79
2023-07-18T09:11:49.152Z,38.10
2023-07-18T09:12:49.128Z,37.98
2023-07-18T09:13:49.080Z,37.88
2023-07-18T09:14:49.302Z,37.49
2023-07-18T09:15:49.082Z,37.72
2023-07-18T09:16:49.178Z,38.14
2023-07-18T09:17:49.054Z,38.24
2023-07-18T09:18:50.679Z,38.56
2023-07-18T09:19:49.100Z,38.75
2023-07-18T09:20:49.100Z,39.33
2023-07-18T09:21:49.024Z,38.54
2023-07-18T09:22:49.028Z,38.56
2023-07-18T09:23:49.001Z,38.73
2023-07-18T09:24:49.555Z,38.64
2023-07-18T09:25:49.000Z,38.81
2023-07-18T09:26:48.997Z,38.20
2023-07-18T09:27:48.958Z,38.09
2023-07-18T09:28:48.997Z,37.39
2023-07-18T09:29:49.063Z,37.29
2023-07-18T09:30:49.051Z,36.77
2023-07-18T09:31:48.984Z,36.58
2023-07-18T09:32:48.956Z,36.36
2023-07-18T09:33:48.893Z,37.27
2023-07-18T09:34:48.872Z,37.37
2023-07-18T09:35:48.906Z,37.07
2023-07-18T09:36:50.709Z,37.27
2023-07-18T09:37:48.906Z,37.37
2023-07-18T09:38:48.844Z,37.27
2023-07-18T09:39:48.872Z,37.17
2023-07-18T09:40:48.860Z,36.76
2023-07-18T09:41:49.502Z,37.05
2023-07-18T09:42:48.817Z,36.96
2023-07-18T09:43:49.092Z,36.64
2023-07-18T09:44:51.583Z,36.44
2023-07-18T09:45:50.081Z,36.35
2023-07-18T09:46:48.824Z,36.43
2023-07-18T09:47:48.885Z,36.23
2023-07-18T09:48:51.085Z,36.41
2023-07-18T09:49:48.866Z,35.82
2023-07-18T09:50:48.740Z,35.80
2023-07-18T09:51:48.734Z,35.60
2023-07-18T09:52:48.732Z,35.30
2023-07-18T09:53:48.698Z,34.99
2023-07-18T09:54:48.730Z,34.99
2023-07-18T09:55:48.686Z,34.79
2023-07-18T09:56:48.664Z,35.50
2023-07-18T09:57:48.681Z,35.61
2023-07-18T09:58:48.658Z,35.91
2023-07-18T09:59:48.612Z,35.93
2023-07-18T10:00:50.099Z,36.15
2023-07-18T10:01:48.614Z,36.24
2023-07-18T10:02:48.693Z,37.04
2023-07-18T10:03:48.612Z,36.13
2023-07-18T10:04:48.573Z,36.43
2023-07-18T10:05:48.594Z,36.24
2023-07-18T10:06:48.541Z,37.47
2023-07-18T10:07:48.563Z,37.49
2023-07-18T10:08:48.578Z,38.73
2023-07-18T10:09:48.575Z,39.05
2023-07-18T10:10:48.520Z,39.43
2023-07-18T10:11:48.508Z,39.11
2023-07-18T10:12:48.470Z,38.10
2023-07-18T10:13:48.471Z,38.10
2023-07-18T10:14:48.499Z,38.00
2023-07-18T10:15:48.502Z,38.10
2023-07-18T10:16:48.493Z,38.30
2023-07-18T10:17:48.587Z,37.90
2023-07-18T10:18:48.421Z,37.39
2023-07-18T10:19:48.424Z,37.39
2023-07-18T10:20:48.476Z,37.60
2023-07-18T10:21:48.416Z,37.29
2023-07-18T10:22:48.481Z,38.17
2023-07-18T10:23:48.649Z,36.64
2023-07-18T10:24:48.363Z,36.43
2023-07-18T10:25:48.367Z,36.52
2023-07-18T10:26:48.352Z,35.82
2023-07-18T10:27:48.342Z,35.30
2023-07-18T10:28:48.357Z,35.02
2023-07-18T10:29:49.049Z,35.44
2023-07-18T10:30:48.330Z,35.93
2023-07-18T10:31:48.375Z,36.24
2023-07-18T10:32:48.390Z,36.33
2023-07-18T10:33:48.304Z,35.83
2023-07-18T10:34:48.307Z,36.13
2023-07-18T10:35:48.270Z,36.05
2023-07-18T10:36:48.331Z,36.46
2023-07-18T10:37:48.230Z,36.66
2023-07-18T10:38:48.244Z,36.86
2023-07-18T10:39:48.241Z,37.26
2023-07-18T10:40:48.206Z,36.86
2023-07-18T10:41:48.228Z,37.45
2023-07-18T10:42:48.180Z,37.05
2023-07-18T10:43:48.249Z,36.96
2023-07-18T10:44:48.189Z,36.98
2023-07-18T10:45:48.408Z,37.07
2023-07-18T10:46:48.196Z,37.17
2023-07-18T10:47:48.163Z,36.88
2023-07-18T10:48:48.133Z,36.66
2023-07-18T10:49:48.148Z,36.96
2023-07-18T10:50:48.333Z,36.86
2023-07-18T10:51:48.170Z,36.44
2023-07-18T10:52:48.142Z,36.43
2023-07-18T10:53:48.103Z,35.83
2023-07-18T10:54:48.055Z,35.61
2023-07-18T10:55:48.095Z,35.93
2023-07-18T10:56:48.053Z,36.33
2023-07-18T10:57:48.043Z,35.55
2023-07-18T10:58:50.389Z,35.73
2023-07-18T10:59:48.026Z,35.63
2023-07-18T11:00:48.048Z,36.05
2023-07-18T11:01:48.075Z,35.75
2023-07-18T11:02:48.067Z,36.46
2023-07-18T11:03:48.014Z,36.26
2023-07-18T11:04:47.985Z,36.24
2023-07-18T11:05:48.024Z,36.13
2023-07-18T11:06:47.975Z,35.95
2023-07-18T11:07:47.927Z,36.26
2023-07-18T11:08:47.939Z,36.56
2023-07-18T11:09:47.931Z,36.76
2023-07-18T11:10:47.906Z,36.44
2023-07-18T11:11:47.901Z,36.35
2023-07-18T11:12:48.160Z,36.15
2023-07-18T11:13:47.874Z,36.44
2023-07-18T11:14:47.888Z,36.24
2023-07-18T11:15:47.869Z,35.83
2023-07-18T11:16:47.995Z,36.19
2023-07-18T11:17:47.862Z,35.28
2023-07-18T11:18:47.838Z,34.95
2023-07-18T11:19:47.816Z,34.17
2023-07-18T11:20:47.810Z,34.27
2023-07-18T11:21:47.789Z,34.05
2023-07-18T11:22:47.855Z,33.56
2023-07-18T11:23:47.794Z,33.64
2023-07-18T11:24:48.556Z,33.85
2023-07-18T11:25:47.757Z,33.85
2023-07-18T11:26:47.837Z,33.85
2023-07-18T11:27:47.828Z,34.28
2023-07-18T11:28:47.743Z,34.18
2023-07-18T11:29:47.707Z,34.28
2023-07-18T11:30:47.706Z,34.28
2023-07-18T11:31:47.934Z,34.08
2023-07-18T11:32:47.891Z,34.78
2023-07-18T11:33:47.668Z,34.95
2023-07-18T11:34:47.693Z,34.55
2023-07-18T11:35:47.711Z,33.94
2023-07-18T11:36:47.731Z,33.41
2023-07-18T11:37:47.743Z,32.41
2023-07-18T11:38:47.666Z,32.13
2023-07-18T11:39:47.613Z,32.84
2023-07-18T11:40:47.628Z,33.01
2023-07-18T11:41:47.592Z,32.62
2023-07-18T11:42:47.614Z,32.51
2023-07-18T11:43:47.603Z,31.83
2023-07-18T11:44:47.570Z,32.64
2023-07-18T11:45:47.598Z,32.84
2023-07-18T11:46:47.555Z,32.73
2023-07-18T11:47:47.616Z,32.75
2023-07-18T11:48:47.629Z,33.95
2023-07-18T11:49:47.623Z,33.56
2023-07-18T11:50:47.524Z,34.15
2023-07-18T11:51:47.496Z,33.62
2023-07-18T11:52:47.559Z,33.23
2023-07-18T11:53:47.529Z,33.16
2023-07-18T11:54:48.648Z,34.28
2023-07-18T11:55:47.458Z,34.39
2023-07-18T11:56:47.479Z,34.81
2023-07-18T11:57:47.457Z,34.38
2023-07-18T11:58:47.453Z,34.27
2023-07-18T11:59:47.436Z,33.44
2023-07-18T12:00:47.447Z,32.84
2023-07-18T12:01:47.471Z,32.93
2023-07-18T12:02:47.616Z,33.13
2023-07-18T12:03:47.486Z,32.75
2023-07-18T12:04:47.411Z,33.16
2023-07-18T12:05:47.355Z,33.34
2023-07-18T12:06:47.348Z,32.93
2023-07-18T12:07:47.361Z,33.22
2023-07-18T12:08:47.368Z,32.80
2023-07-18T12:09:47.321Z,32.29
2023-07-18T12:10:56.363Z,31.88
2023-07-18T12:11:47.350Z,31.69
2023-07-18T12:12:47.289Z,31.98
2023-07-18T12:13:47.330Z,32.10
2023-07-18T12:14:47.277Z,32.23
2023-07-18T12:15:47.272Z,32.41
2023-07-18T12:16:47.326Z,32.11
2023-07-18T12:17:47.333Z,32.11
2023-07-18T12:18:47.248Z,32.82
2023-07-18T12:19:47.234Z,33.34
2023-07-18T12:20:47.222Z,33.65
2023-07-18T12:21:47.240Z,33.65
2023-07-18T12:22:47.284Z,33.95
2023-07-18T12:23:47.205Z,34.01
2023-07-18T12:24:47.199Z,32.72
2023-07-18T12:25:47.179Z,32.20
2023-07-18T12:26:47.166Z,31.98
2023-07-18T12:27:47.197Z,31.38
2023-07-18T12:28:47.161Z,31.38
2023-07-18T12:29:47.125Z,31.26
2023-07-18T12:30:47.150Z,31.16
2023-07-18T12:31:47.296Z,31.07
2023-07-18T12:32:47.209Z,31.13
2023-07-18T12:33:47.181Z,30.82
2023-07-18T12:34:47.132Z,30.62
2023-07-18T12:35:47.107Z,29.44
2023-07-18T12:36:47.076Z,30.05
2023-07-18T12:37:47.122Z,30.17
2023-07-18T12:38:47.068Z,30.68
2023-07-18T12:39:47.148Z,30.66
2023-07-18T12:40:47.034Z,30.95
2023-07-18T12:41:47.035Z,30.66
2023-07-18T12:42:47.010Z,31.13
2023-07-18T12:43:47.047Z,30.85
2023-07-18T12:44:46.998Z,31.05
2023-07-18T12:45:46.981Z,31.09
2023-07-18T12:46:47.039Z,31.69
2023-07-18T12:47:47.040Z,32.28
2023-07-18T12:48:50.425Z,31.66
2023-07-18T12:50:46.954Z,30.45
2023-07-18T12:51:46.962Z,30.04
2023-07-18T12:52:47.728Z,29.85
2023-07-18T12:53:46.930Z,29.96